Aérodrome :
LOGIN :

S'inscrire | Disclaimer

   EN    FR    IT 

 










Légende :    VFR   VFR Marginal   IFR   IFR Intensif   IFR Très Intensif
Visi : 
Plafond : 
>= 8 km
>= 3000ft
5 à 8 km
1000 à 3000 ft
1500m à 5 km
500 à 1000 ft
800 à 1500m
200 à 500 ft
< 800m
< 200 ft
Symboles :   Orages  Brouillard  Fortes neiges  Fortes précipitations  Vent > 20 kt
SIGMETs :   Divers  Orages  Givrage  Turbulence  Onde Orograph.  Cendres Volcan.






- Altitude de l'aérodrome : 132 ft


EGXE - RAF Leeming

DERNIER METAR :
  • 311750Z AUTO 03005KT 9999 BKN024/// BKN038/// 15/14 Q1008 REDZ

METARs EXPIRÉS :
  • 311650Z AUTO 01007KT 9999 SCT031/// BKN045/// 16/14 Q1007
  • 311550Z AUTO 36008KT 9999 SCT031/// SCT038/// BKN050/// 17/14 Q1007

TAF TAF EGXE
Valide du 31 à 18h jusqu'au 01 à 03h UTC


311650Z 3118/0103 01005KT 9999 FEW015 BKN035
BECMG 3118/3120 BKN015
TEMPO 3118/0103 5000 -RA BKN010
PROB40
TEMPO 3120/0103 4000 RA BKN006
PROB30
TEMPO 3123/0103 2500 RADZ SCT004



MET'MAP, la Météo Aéronautique d'un coup d'oeil ! - Copyright ORBIFLY Décembre 2007 - Disclaimer

ORBIFLY MET'MAP TEAM :

Programmation & Développement : Alexandra Zaïnal
Sur une idée originale de : Baudouin d'Aumeries
Assistance à la programmation : Marc-Olivier Méhu
Soutien technique & logistique : Manuel Goepfert

Contact : metmap@orbifly.com




SOURCES & CREDITS :

   NOAA